Time;durP1;ratioP1;P1;durP2;ratioP2;P2;SDS_P1;SDS_P2;PMS_P1;PMS_P2;Temp;Humidity;BMP_temperature;BMP_pressure;BME280_temperature;BME280_humidity;BME280_pressure;Samples;Min_cycle;Max_cycle;Signal;HPM_P1;HPM_P2
2021/01/03 00:01:11;;;;;;;103.70;40.90;;;4.80;93.90;;;;;;4973776;28;20648;-53
2021/01/03 00:03:38;;;;;;;104.43;40.45;;;4.70;93.90;;;;;;4973930;28;20507;-53
2021/01/03 00:06:06;;;;;;;91.10;39.10;;;4.70;94.00;;;;;;4959393;28;20440;-53
2021/01/03 00:08:33;;;;;;;95.57;38.90;;;4.80;93.90;;;;;;4960235;28;20051;-56
2021/01/03 00:10:59;;;;;;;101.18;39.72;;;4.70;93.90;;;;;;4971280;28;20042;-49
2021/01/03 00:13:24;;;;;;;102.85;38.17;;;4.70;93.80;;;;;;4972959;28;20097;-54
2021/01/03 00:15:50;;;;;;;101.10;38.38;;;4.70;93.80;;;;;;4973832;28;20042;-54
2021/01/03 00:18:16;;;;;;;108.65;39.67;;;4.80;93.60;;;;;;4973529;28;20045;-55
2021/01/03 00:20:41;;;;;;;105.88;39.85;;;4.70;93.70;;;;;;4973853;28;20027;-55
2021/01/03 00:23:12;;;;;;;104.13;40.13;;;4.70;93.80;;;;;;4973852;28;20039;-54
2021/01/03 00:25:37;;;;;;;114.72;39.80;;;4.80;93.60;;;;;;4967157;28;20089;-54
2021/01/03 00:28:03;;;;;;;105.57;40.17;;;4.80;93.60;;;;;;4974130;28;20038;-50
2021/01/03 00:30:29;;;;;;;91.43;38.53;;;4.70;93.70;;;;;;4973411;28;20070;-53
2021/01/03 00:32:56;;;;;;;101.93;40.63;;;4.70;93.80;;;;;;4973334;28;20046;-54
2021/01/03 00:35:33;;;;;;;102.78;38.88;;;4.70;93.70;;;;;;4971794;28;20043;-53
2021/01/03 00:38:06;;;;;;;97.90;38.58;;;4.70;93.80;;;;;;4973512;28;20042;-53
2021/01/03 00:40:32;;;;;;;89.30;36.65;;;4.70;93.70;;;;;;4973244;28;20041;-55
2021/01/03 00:42:58;;;;;;;91.68;37.15;;;4.70;93.80;;;;;;4973420;28;20051;-55
2021/01/03 00:45:27;;;;;;;87.80;35.60;;;4.70;93.90;;;;;;4974817;28;20054;-50
2021/01/03 00:47:58;;;;;;;83.22;34.92;;;4.70;93.80;;;;;;4974446;28;20038;-56
2021/01/03 00:50:25;;;;;;;82.53;35.03;;;4.70;93.70;;;;;;4972206;28;20041;-54
2021/01/03 00:52:51;;;;;;;79.97;33.20;;;4.70;93.60;;;;;;4974221;28;20050;-55
2021/01/03 00:55:18;;;;;;;80.00;33.53;;;4.70;93.70;;;;;;4974992;28;20094;-56
2021/01/03 00:57:43;;;;;;;77.18;33.17;;;4.70;93.70;;;;;;4973615;28;20042;-53
2021/01/03 01:00:17;;;;;;;73.72;31.50;;;4.70;93.70;;;;;;4973438;28;20545;-53
2021/01/03 01:02:43;;;;;;;76.38;33.13;;;4.80;93.10;;;;;;4972604;28;20042;-53
2021/01/03 01:05:10;;;;;;;83.05;34.05;;;4.80;92.90;;;;;;4971653;28;20042;-51
2021/01/03 01:07:35;;;;;;;79.90;33.47;;;4.80;93.20;;;;;;4988026;28;20034;-53
2021/01/03 01:10:02;;;;;;;78.68;32.63;;;4.70;93.40;;;;;;4982740;28;20121;-52
2021/01/03 01:12:28;;;;;;;81.20;33.30;;;4.70;93.40;;;;;;4971653;28;20050;-53
2021/01/03 01:14:54;;;;;;;87.65;34.55;;;4.70;93.50;;;;;;4972000;28;20039;-52
2021/01/03 01:17:20;;;;;;;83.05;34.00;;;4.70;93.40;;;;;;4972529;28;20078;-53
2021/01/03 01:19:45;;;;;;;78.07;32.75;;;4.70;93.40;;;;;;4972418;28;20499;-53
2021/01/03 01:22:11;;;;;;;79.70;35.20;;;4.80;92.90;;;;;;4972292;28;20082;-52
2021/01/03 01:24:36;;;;;;;72.85;32.33;;;4.70;93.10;;;;;;4983051;28;20038;-55
2021/01/03 01:27:02;;;;;;;77.70;33.00;;;4.80;93.00;;;;;;4971931;28;20438;-55
2021/01/03 01:29:27;;;;;;;73.28;32.15;;;4.70;93.20;;;;;;4972660;28;20047;-53
2021/01/03 01:31:53;;;;;;;73.70;31.60;;;4.70;93.20;;;;;;4972205;28;20051;-49
2021/01/03 01:34:19;;;;;;;79.60;33.58;;;4.80;93.00;;;;;;4972032;28;20047;-54
2021/01/03 01:36:44;;;;;;;81.15;34.83;;;4.70;93.20;;;;;;4972484;28;20046;-53
2021/01/03 01:39:10;;;;;;;82.25;34.72;;;4.80;93.20;;;;;;4972899;28;20042;-51
2021/01/03 01:41:36;;;;;;;83.07;34.05;;;4.70;93.00;;;;;;4972260;28;20497;-52
2021/01/03 01:44:03;;;;;;;72.05;31.48;;;4.70;93.20;;;;;;4971752;28;20047;-53
2021/01/03 01:46:50;;;;;;;80.07;33.97;;;4.70;93.20;;;;;;4965688;28;20491;-51
2021/01/03 01:49:16;;;;;;;81.15;33.08;;;4.70;93.00;;;;;;4957841;28;20039;-54
2021/01/03 01:51:46;;;;;;;76.88;33.25;;;4.70;93.20;;;;;;4973066;28;20520;-52
2021/01/03 01:54:18;;;;;;;77.63;31.83;;;4.70;93.10;;;;;;4960501;28;20049;-51
2021/01/03 01:57:09;;;;;;;79.10;33.08;;;4.70;93.20;;;;;;4985537;28;20160;-53
2021/01/03 02:00:05;;;;;;;76.70;31.92;;;4.70;93.20;;;;;;4969129;28;20027;-52
2021/01/03 02:02:39;;;;;;;81.50;32.10;;;4.60;93.30;;;;;;4969847;28;20038;-53
2021/01/03 02:05:18;;;;;;;79.20;33.53;;;4.60;93.40;;;;;;4971679;28;20507;-53
2021/01/03 02:08:00;;;;;;;74.25;31.77;;;4.60;93.50;;;;;;4971115;28;20503;-54
2021/01/03 02:10:29;;;;;;;80.50;33.45;;;4.70;93.00;;;;;;4971388;28;20031;-53
2021/01/03 02:13:09;;;;;;;80.47;33.58;;;4.60;93.40;;;;;;4970952;28;20043;-54
2021/01/03 02:15:37;;;;;;;82.15;33.47;;;4.60;93.40;;;;;;4971579;28;20451;-57
2021/01/03 02:18:05;;;;;;;88.97;34.08;;;4.60;93.50;;;;;;4971794;28;20035;-54
2021/01/03 02:21:01;;;;;;;82.03;32.97;;;4.60;93.30;;;;;;4973349;28;20131;-53
2021/01/03 02:23:49;;;;;;;76.45;32.22;;;4.50;93.40;;;;;;4992113;28;20038;-56
2021/01/03 02:26:16;;;;;;;75.18;31.48;;;4.60;93.30;;;;;;4988106;28;20450;-53
2021/01/03 02:28:44;;;;;;;74.20;33.13;;;4.50;93.20;;;;;;4971204;28;20043;-52
2021/01/03 02:31:15;;;;;;;79.75;33.47;;;4.50;93.50;;;;;;4971552;28;20049;-51
2021/01/03 02:33:45;;;;;;;80.68;33.15;;;4.50;93.40;;;;;;4971429;28;20045;-53
2021/01/03 02:36:18;;;;;;;83.57;33.80;;;4.50;93.40;;;;;;4980608;28;20062;-56
2021/01/03 02:39:05;;;;;;;84.05;33.40;;;4.50;93.50;;;;;;4947771;28;20134;-56
2021/01/03 02:41:31;;;;;;;77.05;31.55;;;4.40;93.60;;;;;;4971367;28;20089;-56
2021/01/03 02:43:57;;;;;;;76.95;32.30;;;4.50;93.70;;;;;;4971548;28;20083;-56
2021/01/03 02:46:23;;;;;;;82.43;32.75;;;4.50;93.60;;;;;;4971569;28;20057;-55
2021/01/03 02:48:49;;;;;;;74.30;32.28;;;4.50;93.60;;;;;;4971293;28;20039;-56
2021/01/03 02:51:15;;;;;;;76.55;31.98;;;4.50;93.60;;;;;;4972011;28;20520;-56
2021/01/03 02:53:40;;;;;;;77.82;32.28;;;4.50;93.70;;;;;;4971498;28;20081;-56
2021/01/03 02:56:06;;;;;;;91.65;34.22;;;4.50;93.60;;;;;;4971779;28;20491;-56
2021/01/03 02:58:32;;;;;;;78.05;32.70;;;4.50;93.30;;;;;;4970634;28;20133;-56
2021/01/03 03:00:57;;;;;;;80.13;33.60;;;4.50;93.30;;;;;;4971821;28;20126;-56
2021/01/03 03:03:24;;;;;;;78.10;33.35;;;4.50;93.50;;;;;;4970034;28;20118;-55
2021/01/03 03:05:50;;;;;;;79.32;32.47;;;4.60;93.20;;;;;;4986702;28;20053;-56
2021/01/03 03:08:17;;;;;;;77.95;33.47;;;4.60;93.10;;;;;;4971916;28;20419;-56
2021/01/03 03:10:42;;;;;;;71.22;31.00;;;4.50;93.40;;;;;;4971573;28;20094;-56
2021/01/03 03:13:12;;;;;;;77.75;32.40;;;4.50;93.40;;;;;;4969843;28;20043;-56
2021/01/03 03:15:41;;;;;;;76.03;32.33;;;4.60;93.10;;;;;;4972827;28;20043;-53
2021/01/03 03:18:08;;;;;;;81.65;32.25;;;4.50;93.20;;;;;;4972255;28;20505;-56
2021/01/03 03:20:35;;;;;;;73.53;32.03;;;4.50;93.40;;;;;;4972501;28;20404;-50
2021/01/03 03:23:01;;;;;;;75.63;32.05;;;4.50;93.10;;;;;;4971360;28;20074;-53
2021/01/03 03:25:26;;;;;;;80.13;32.97;;;4.50;93.10;;;;;;4972540;28;20086;-52
2021/01/03 03:27:52;;;;;;;71.03;32.47;;;4.50;93.30;;;;;;4973183;28;20047;-53
2021/01/03 03:30:20;;;;;;;80.78;31.33;;;4.50;93.30;;;;;;4975073;28;20038;-55
2021/01/03 03:32:52;;;;;;;75.45;31.02;;;4.50;93.10;;;;;;4974927;28;20407;-53
2021/01/03 03:35:25;;;;;;;77.07;31.50;;;4.50;93.20;;;;;;4975572;28;20042;-53
2021/01/03 03:37:51;;;;;;;69.18;31.17;;;4.50;93.10;;;;;;4975016;28;20034;-50
2021/01/03 03:40:18;;;;;;;82.68;33.00;;;4.40;93.30;;;;;;4974248;28;20114;-55
2021/01/03 03:42:44;;;;;;;75.90;30.73;;;4.50;93.30;;;;;;4974485;28;20046;-54
2021/01/03 03:45:11;;;;;;;74.30;32.85;;;4.40;93.10;;;;;;4974234;28;20034;-52
2021/01/03 03:47:37;;;;;;;72.13;30.88;;;4.40;93.30;;;;;;4982077;28;20043;-55
2021/01/03 03:50:12;;;;;;;72.68;30.42;;;4.40;93.30;;;;;;4975660;28;20062;-56
2021/01/03 03:52:39;;;;;;;78.55;31.00;;;4.40;93.40;;;;;;4984314;28;20039;-50
2021/01/03 03:55:07;;;;;;;79.40;33.03;;;4.40;93.40;;;;;;4975564;28;20122;-57
2021/01/03 03:57:32;;;;;;;69.55;31.45;;;4.30;93.40;;;;;;4975121;28;20041;-55
2021/01/03 03:59:58;;;;;;;79.03;32.70;;;4.40;93.40;;;;;;4975413;28;20419;-57
2021/01/03 04:02:28;;;;;;;74.20;31.08;;;4.40;93.30;;;;;;4988364;28;20292;-55
2021/01/03 04:04:54;;;;;;;70.70;31.20;;;4.40;93.40;;;;;;4975948;28;20070;-55
2021/01/03 04:07:22;;;;;;;70.15;30.75;;;4.40;93.40;;;;;;4975264;28;20043;-52
2021/01/03 04:09:47;;;;;;;73.57;31.58;;;4.30;93.60;;;;;;4974538;28;20046;-56
2021/01/03 04:12:13;;;;;;;74.22;31.23;;;4.40;93.40;;;;;;4974887;28;20042;-55
2021/01/03 04:14:38;;;;;;;80.05;30.88;;;4.40;93.40;;;;;;4975440;28;20047;-53
2021/01/03 04:17:04;;;;;;;76.07;32.65;;;4.30;93.60;;;;;;4974070;28;20039;-51
2021/01/03 04:19:31;;;;;;;73.97;31.85;;;4.30;93.80;;;;;;4975174;28;20038;-52
2021/01/03 04:22:03;;;;;;;75.65;31.13;;;4.30;93.60;;;;;;4975282;28;20055;-54
2021/01/03 04:24:29;;;;;;;70.43;31.83;;;4.30;93.60;;;;;;4973692;28;20043;-55
2021/01/03 04:26:59;;;;;;;76.60;34.08;;;4.30;93.70;;;;;;4974275;28;20293;-52
2021/01/03 04:29:25;;;;;;;72.97;30.85;;;4.30;93.70;;;;;;4989524;28;20038;-55
2021/01/03 04:32:11;;;;;;;77.68;30.58;;;4.30;93.70;;;;;;4974239;28;20049;-52
2021/01/03 04:34:42;;;;;;;75.18;31.77;;;4.30;93.80;;;;;;4974133;28;20557;-53
2021/01/03 04:37:08;;;;;;;75.85;31.83;;;4.30;93.70;;;;;;4974147;28;20093;-55
2021/01/03 04:39:38;;;;;;;78.30;31.70;;;4.30;93.70;;;;;;4974333;28;20506;-52
2021/01/03 04:42:08;;;;;;;79.10;31.73;;;4.20;93.80;;;;;;4974839;28;20039;-54
2021/01/03 04:44:44;;;;;;;77.97;30.92;;;4.30;93.70;;;;;;4973831;28;20046;-52
2021/01/03 04:47:21;;;;;;;75.07;32.63;;;4.30;93.40;;;;;;4973813;28;20051;-53
2021/01/03 04:50:06;;;;;;;82.95;32.28;;;4.30;93.50;;;;;;4973031;28;20047;-52
2021/01/03 04:52:41;;;;;;;77.45;32.70;;;4.30;93.50;;;;;;4972887;28;20062;-49
2021/01/03 04:55:18;;;;;;;75.28;32.38;;;4.40;93.30;;;;;;4973138;28;20117;-53
2021/01/03 04:57:58;;;;;;;79.95;32.90;;;4.30;93.40;;;;;;4972867;28;20041;-53
2021/01/03 05:00:31;;;;;;;83.57;34.40;;;4.30;93.60;;;;;;4967473;28;20061;-53
2021/01/03 05:03:29;;;;;;;79.43;32.78;;;4.30;93.60;;;;;;4970537;28;20039;-49
2021/01/03 05:06:06;;;;;;;76.97;32.45;;;4.20;93.70;;;;;;4968942;28;20039;-51
2021/01/03 05:08:44;;;;;;;83.68;32.58;;;4.30;93.70;;;;;;4972000;28;20214;-51
2021/01/03 05:11:17;;;;;;;80.28;33.90;;;4.30;93.60;;;;;;4973038;28;20144;-52
2021/01/03 05:13:54;;;;;;;85.95;33.65;;;4.30;93.50;;;;;;4971569;28;20267;-51
2021/01/03 05:16:20;;;;;;;78.72;33.45;;;4.30;93.50;;;;;;4972594;28;20118;-50
2021/01/03 05:18:46;;;;;;;82.80;33.67;;;4.30;93.80;;;;;;4972865;28;20050;-54
2021/01/03 05:21:12;;;;;;;77.32;33.38;;;4.30;93.70;;;;;;4973225;28;20484;-53
2021/01/03 05:23:39;;;;;;;81.10;34.40;;;4.30;93.50;;;;;;4972592;28;20145;-54
2021/01/03 05:26:08;;;;;;;95.60;34.47;;;4.30;93.60;;;;;;4972548;28;20047;-55
2021/01/03 05:28:37;;;;;;;79.82;33.92;;;4.40;93.30;;;;;;4972110;28;20042;-55
2021/01/03 05:31:16;;;;;;;92.28;34.35;;;4.30;93.40;;;;;;4972347;28;20602;-54
2021/01/03 05:33:55;;;;;;;88.45;36.60;;;4.30;93.50;;;;;;4973020;28;20047;-53
2021/01/03 05:36:33;;;;;;;85.63;36.13;;;4.30;93.50;;;;;;4972632;28;20071;-53
2021/01/03 05:39:03;;;;;;;86.38;35.05;;;4.30;93.70;;;;;;4972494;28;20042;-55
2021/01/03 05:41:44;;;;;;;86.88;36.75;;;4.40;93.50;;;;;;4968950;28;20503;-55
2021/01/03 05:44:38;;;;;;;80.35;35.70;;;4.30;93.60;;;;;;4969901;28;20054;-54
2021/01/03 05:47:17;;;;;;;85.72;35.83;;;4.30;93.60;;;;;;4973314;28;20047;-54
2021/01/03 05:49:43;;;;;;;82.97;34.92;;;4.40;93.40;;;;;;4972234;28;20503;-55
2021/01/03 05:52:28;;;;;;;87.72;34.30;;;4.40;93.30;;;;;;4975370;28;20039;-55
2021/01/03 05:54:55;;;;;;;90.45;36.25;;;4.30;93.50;;;;;;4969007;28;20055;-54
2021/01/03 05:57:34;;;;;;;85.85;35.53;;;4.30;93.60;;;;;;4973911;28;20061;-53
2021/01/03 06:00:27;;;;;;;87.15;36.47;;;4.30;93.30;;;;;;4995396;28;20458;-54
2021/01/03 06:02:53;;;;;;;;;;;4.30;93.50;;;;;;4992416;28;20061;-55
2021/01/03 06:05:23;;;;;;;83.68;35.53;;;4.20;93.70;;;;;;4979354;28;19925;-55
2021/01/03 06:08:01;;;;;;;70.85;30.73;;;4.40;93.30;;;;;;4991599;28;20071;-53
2021/01/03 06:10:28;;;;;;;78.85;35.38;;;4.40;93.20;;;;;;4973113;28;20046;-50
2021/01/03 06:12:58;;;;;;;88.38;37.40;;;4.30;93.30;;;;;;4990545;28;20025;-54
2021/01/03 06:15:27;;;;;;;81.85;36.42;;;4.40;93.20;;;;;;4982992;28;20069;-56
2021/01/03 06:17:59;;;;;;;87.93;36.58;;;4.30;93.40;;;;;;4985317;28;20114;-51
2021/01/03 06:20:29;;;;;;;84.75;35.55;;;4.20;93.50;;;;;;4973804;28;20043;-50
2021/01/03 06:23:23;;;;;;;84.32;36.63;;;4.30;93.40;;;;;;4968025;28;20047;-55
2021/01/03 06:25:58;;;;;;;86.88;36.55;;;4.30;93.60;;;;;;4968852;28;20039;-56
2021/01/03 06:28:23;;;;;;;86.30;34.83;;;4.30;93.50;;;;;;4992272;28;20047;-51
2021/01/03 06:31:28;;;;;;;86.80;35.25;;;4.30;93.60;;;;;;4975936;28;20859;-49
2021/01/03 06:34:28;;;;;;;91.32;37.63;;;4.30;93.50;;;;;;4969678;28;20047;-55
2021/01/03 06:37:06;;;;;;;89.43;35.58;;;4.30;93.50;;;;;;4993180;28;20506;-51
2021/01/03 06:40:00;;;;;;;90.75;36.00;;;4.30;93.50;;;;;;4970526;28;20143;-53
2021/01/03 06:42:45;;;;;;;75.32;34.90;;;4.20;93.50;;;;;;4996084;28;20062;-50
2021/01/03 06:45:46;;;;;;;82.85;35.13;;;4.30;93.50;;;;;;4979029;28;20062;-50
2021/01/03 06:48:14;;;;;;;84.20;35.30;;;4.30;93.20;;;;;;4981763;28;20047;-54
2021/01/03 06:50:49;;;;;;;80.82;34.80;;;4.30;93.30;;;;;;4972234;28;20514;-51
2021/01/03 06:53:50;;;;;;;76.05;34.58;;;4.30;93.40;;;;;;4974679;28;20058;-52
2021/01/03 06:57:20;;;;;;;76.28;35.28;;;4.40;93.10;;;;;;4971764;28;20042;-49
2021/01/03 07:00:04;;;;;;;79.50;34.75;;;4.30;93.20;;;;;;4910841;29;20047;-53
2021/01/03 07:02:32;;;;;;;75.38;34.15;;;4.20;93.40;;;;;;4955179;28;20031;-51
2021/01/03 07:05:05;;;;;;;83.65;34.28;;;4.40;93.20;;;;;;4972069;28;20047;-56
2021/01/03 07:07:34;;;;;;;79.88;34.58;;;4.20;93.40;;;;;;4988306;28;20049;-52
2021/01/03 07:10:06;;;;;;;80.43;35.90;;;4.20;93.50;;;;;;4978521;28;20113;-53
2021/01/03 07:12:43;;;;;;;81.30;34.67;;;4.30;93.30;;;;;;4981578;28;20094;-56
2021/01/03 07:15:30;;;;;;;79.22;34.15;;;4.30;93.30;;;;;;4979646;28;20121;-55
2021/01/03 07:17:57;;;;;;;84.25;36.97;;;4.20;93.50;;;;;;4979052;28;20054;-55
2021/01/03 07:20:25;;;;;;;74.75;32.15;;;4.20;93.60;;;;;;4981487;28;20043;-53
2021/01/03 07:22:50;;;;;;;81.13;35.10;;;4.10;93.60;;;;;;4988127;28;20042;-50
2021/01/03 07:25:21;;;;;;;72.78;32.58;;;4.30;93.20;;;;;;4982582;28;20073;-52
2021/01/03 07:28:08;;;;;;;81.32;36.20;;;4.30;93.10;;;;;;4970780;28;20466;-53
2021/01/03 07:31:22;;;;;;;79.90;35.22;;;4.30;93.10;;;;;;4994267;28;20114;-50
2021/01/03 07:34:03;;;;;;;79.43;34.83;;;4.20;93.20;;;;;;4978431;28;20055;-56
2021/01/03 07:36:43;;;;;;;83.90;35.10;;;4.10;93.50;;;;;;4983573;28;20046;-52
2021/01/03 07:39:30;;;;;;;79.13;34.97;;;4.10;93.50;;;;;;4994192;28;20073;-54
2021/01/03 07:42:21;;;;;;;77.07;34.90;;;4.20;93.10;;;;;;4978235;28;20046;-56
2021/01/03 07:44:48;;;;;;;77.05;35.22;;;4.20;93.40;;;;;;4976404;28;20054;-49
2021/01/03 07:47:44;;;;;;;79.43;36.17;;;4.30;92.90;;;;;;4979876;28;20195;-55
2021/01/03 07:50:37;;;;;;;74.57;32.97;;;4.20;93.20;;;;;;4971571;28;20530;-51
2021/01/03 07:53:25;;;;;;;76.20;34.67;;;4.20;93.20;;;;;;4978362;28;20046;-55
2021/01/03 07:55:53;;;;;;;75.07;31.70;;;4.30;92.80;;;;;;4977003;28;20058;-50
2021/01/03 07:58:23;;;;;;;72.78;34.28;;;4.30;92.90;;;;;;4979672;28;20043;-53
2021/01/03 08:00:56;;;;;;;78.90;35.13;;;4.30;93.10;;;;;;4978296;28;20065;-50
2021/01/03 08:03:25;;;;;;;81.53;35.25;;;4.20;93.20;;;;;;4977709;28;20552;-53
2021/01/03 08:05:51;;;;;;;79.80;34.35;;;4.20;93.20;;;;;;4981123;28;20462;-54
2021/01/03 08:08:25;;;;;;;74.32;32.38;;;4.20;93.20;;;;;;4978965;28;20479;-51
2021/01/03 08:11:03;;;;;;;72.45;32.40;;;4.20;93.40;;;;;;4981017;28;20118;-50
2021/01/03 08:13:38;;;;;;;78.20;34.55;;;4.30;93.20;;;;;;4978443;28;20039;-55
2021/01/03 08:16:05;;;;;;;74.43;32.67;;;4.20;93.10;;;;;;4978126;28;20085;-50
2021/01/03 08:18:39;;;;;;;73.72;32.42;;;4.30;93.10;;;;;;4977114;28;20423;-54
2021/01/03 08:21:07;;;;;;;77.90;33.92;;;4.30;92.90;;;;;;4980414;28;20054;-52
2021/01/03 08:23:34;;;;;;;74.53;33.92;;;4.30;92.90;;;;;;4978715;28;20426;-53
2021/01/03 08:26:11;;;;;;;80.32;34.63;;;4.30;93.00;;;;;;4972321;28;20053;-50
2021/01/03 08:28:49;;;;;;;77.13;32.83;;;4.20;93.20;;;;;;4970449;28;20055;-55
2021/01/03 08:31:14;;;;;;;72.13;33.50;;;4.20;93.30;;;;;;4975678;28;20039;-51
2021/01/03 08:33:42;;;;;;;79.35;34.13;;;4.20;93.10;;;;;;4976872;28;20418;-56
2021/01/03 08:36:33;;;;;;;71.55;32.70;;;4.30;92.90;;;;;;4976988;28;20068;-56
2021/01/03 08:39:08;;;;;;;73.78;33.25;;;4.20;93.00;;;;;;4976513;28;20070;-53
2021/01/03 08:41:40;;;;;;;73.30;32.58;;;4.20;93.20;;;;;;4973095;28;20050;-52
2021/01/03 08:44:05;;;;;;;66.53;31.40;;;4.20;92.90;;;;;;4974524;28;20046;-53
2021/01/03 08:46:33;;;;;;;68.28;31.92;;;4.30;92.80;;;;;;4977309;28;20093;-54
2021/01/03 08:49:06;;;;;;;66.65;31.30;;;4.30;92.90;;;;;;4978087;28;20522;-53
2021/01/03 08:52:08;;;;;;;73.40;31.92;;;4.20;92.90;;;;;;4973730;28;20042;-54
2021/01/03 08:54:34;;;;;;;67.70;31.10;;;4.20;93.10;;;;;;4982972;28;20063;-56
2021/01/03 08:57:06;;;;;;;65.65;30.30;;;4.20;92.90;;;;;;4974089;28;20073;-55
2021/01/03 08:59:32;;;;;;;62.33;29.35;;;4.20;92.70;;;;;;4974053;28;20046;-56
2021/01/03 09:01:58;;;;;;;62.60;28.90;;;4.30;92.70;;;;;;4973617;28;20030;-53
2021/01/03 09:04:24;;;;;;;61.47;29.73;;;4.30;92.70;;;;;;4974730;28;20041;-51
2021/01/03 09:06:56;;;;;;;57.92;28.58;;;4.30;92.20;;;;;;4973232;28;20042;-53
2021/01/03 09:09:25;;;;;;;63.47;29.00;;;4.30;92.10;;;;;;4972425;28;20479;-50
2021/01/03 09:12:00;;;;;;;58.75;27.65;;;4.40;92.20;;;;;;4975238;28;20038;-50
2021/01/03 09:14:34;;;;;;;54.65;27.45;;;4.40;92.10;;;;;;4987447;28;20038;-51
2021/01/03 09:17:07;;;;;;;60.33;28.95;;;4.40;92.00;;;;;;4971533;28;20074;-55
2021/01/03 09:19:35;;;;;;;;;;;4.40;92.20;;;;;;4968132;28;20372;-53
2021/01/03 09:22:02;;;;;;;57.97;27.33;;;4.40;92.40;;;;;;4970196;28;19973;-53
2021/01/03 09:24:31;;;;;;;55.10;25.35;;;4.40;92.00;;;;;;4970944;28;20043;-55
2021/01/03 09:26:59;;;;;;;54.17;27.13;;;4.60;91.30;;;;;;4971569;28;20043;-53
2021/01/03 09:29:47;;;;;;;58.05;27.45;;;4.40;91.60;;;;;;4974810;28;20038;-53
2021/01/03 09:32:31;;;;;;;52.55;24.35;;;4.50;91.30;;;;;;4969202;28;20046;-55
2021/01/03 09:35:08;;;;;;;50.53;25.50;;;4.50;91.60;;;;;;4971493;28;20101;-55
2021/01/03 09:37:40;;;;;;;52.90;26.77;;;4.50;91.40;;;;;;4971236;28;20388;-55
2021/01/03 09:40:25;;;;;;;49.10;24.90;;;4.40;91.70;;;;;;4971780;28;20038;-55
2021/01/03 09:43:28;;;;;;;50.42;25.40;;;4.50;91.40;;;;;;4970235;28;20393;-54
2021/01/03 09:46:24;;;;;;;47.92;23.77;;;4.50;91.60;;;;;;4969646;28;20070;-53
2021/01/03 09:48:50;;;;;;;50.55;24.83;;;4.50;91.20;;;;;;4969457;28;20052;-52
2021/01/03 09:51:21;;;;;;;51.45;23.90;;;4.50;91.10;;;;;;4971510;28;20471;-53
2021/01/03 09:53:55;;;;;;;46.05;24.45;;;4.50;91.00;;;;;;4970455;28;20038;-55
2021/01/03 09:56:30;;;;;;;53.58;25.15;;;4.50;91.20;;;;;;4971972;28;20047;-52
2021/01/03 09:58:56;;;;;;;52.42;25.63;;;4.50;91.40;;;;;;4968429;28;20039;-55
2021/01/03 10:01:41;;;;;;;57.38;27.40;;;4.50;91.40;;;;;;4970739;28;20058;-52
2021/01/03 10:04:24;;;;;;;51.33;25.30;;;4.60;91.20;;;;;;4969810;28;20440;-55
2021/01/03 10:06:53;;;;;;;51.15;24.85;;;4.60;91.20;;;;;;4970199;28;20430;-51
2021/01/03 10:09:24;;;;;;;54.55;25.48;;;4.60;91.40;;;;;;4970362;28;20109;-55
2021/01/03 10:11:52;;;;;;;49.85;25.50;;;4.60;91.10;;;;;;4970155;28;20049;-52
2021/01/03 10:14:33;;;;;;;55.67;26.05;;;4.60;91.10;;;;;;4969646;28;20031;-51
2021/01/03 10:17:20;;;;;;;51.58;26.38;;;4.70;91.00;;;;;;4971950;28;20110;-50
2021/01/03 10:19:46;;;;;;;57.28;25.98;;;4.60;91.10;;;;;;4969354;28;20047;-51
2021/01/03 10:22:29;;;;;;;57.97;28.33;;;4.60;91.40;;;;;;4968973;28;20042;-55
2021/01/03 10:24:56;;;;;;;;;;;4.70;91.40;;;;;;4970510;28;20042;-54
2021/01/03 10:27:21;;;;;;;56.63;26.55;;;4.70;91.20;;;;;;4970080;28;20486;-52
2021/01/03 10:29:47;;;;;;;54.50;25.98;;;4.70;91.40;;;;;;4970244;28;20118;-49
2021/01/03 10:32:13;;;;;;;49.40;23.92;;;4.70;91.40;;;;;;4968972;28;20038;-51
2021/01/03 10:34:38;;;;;;;54.13;26.95;;;4.80;90.80;;;;;;4972676;28;20062;-50
2021/01/03 10:37:05;;;;;;;61.65;30.00;;;4.90;90.80;;;;;;4971671;28;20039;-55
2021/01/03 10:39:31;;;;;;;51.47;25.20;;;4.90;90.80;;;;;;4972466;28;20085;-50
2021/01/03 10:41:57;;;;;;;50.58;23.33;;;4.70;91.00;;;;;;4973942;28;20089;-52
2021/01/03 10:44:24;;;;;;;56.97;27.30;;;4.80;90.80;;;;;;4974876;28;20498;-50
2021/01/03 10:46:50;;;;;;;54.67;26.70;;;4.80;90.60;;;;;;4973130;28;20086;-53
2021/01/03 10:49:17;;;;;;;54.63;26.08;;;4.80;90.70;;;;;;4974580;28;20144;-50
2021/01/03 10:51:44;;;;;;;51.90;25.48;;;4.80;91.10;;;;;;4973695;28;20526;-52
2021/01/03 10:54:18;;;;;;;49.65;24.25;;;4.70;91.30;;;;;;4973945;28;20225;-50
2021/01/03 10:56:49;;;;;;;45.97;22.58;;;4.80;91.00;;;;;;4974543;28;20039;-54
2021/01/03 10:59:15;;;;;;;46.38;23.65;;;4.80;90.50;;;;;;4973027;28;20039;-54
2021/01/03 11:01:42;;;;;;;44.30;23.33;;;4.80;90.70;;;;;;4974950;28;20046;-52
2021/01/03 11:04:08;;;;;;;49.00;23.77;;;4.80;90.30;;;;;;4973127;28;20043;-53
2021/01/03 11:06:39;;;;;;;47.22;23.63;;;4.90;90.40;;;;;;4974022;28;20070;-52
2021/01/03 11:09:07;;;;;;;49.50;23.67;;;4.90;90.70;;;;;;4973633;28;20046;-53
2021/01/03 11:11:32;;;;;;;49.50;23.48;;;4.90;90.50;;;;;;4970925;28;20499;-54
2021/01/03 11:13:58;;;;;;;44.45;22.40;;;4.80;90.60;;;;;;4973032;28;20038;-55
2021/01/03 11:16:39;;;;;;;41.90;21.48;;;4.90;90.40;;;;;;4972331;28;20736;-55
2021/01/03 11:19:07;;;;;;;41.45;21.00;;;5.00;89.80;;;;;;4973231;28;20030;-55
2021/01/03 11:21:33;;;;;;;44.80;23.30;;;5.00;89.40;;;;;;4974593;28;20034;-55
2021/01/03 11:23:58;;;;;;;45.05;23.00;;;4.90;89.40;;;;;;4972207;28;20161;-56
2021/01/03 11:26:36;;;;;;;42.78;21.48;;;4.90;89.80;;;;;;4973407;28;20086;-56
2021/01/03 11:29:06;;;;;;;44.13;22.52;;;5.00;88.10;;;;;;4974269;28;20042;-55
2021/01/03 11:31:41;;;;;;;44.35;20.92;;;4.90;89.40;;;;;;4988843;28;20045;-56
2021/01/03 11:34:09;;;;;;;41.13;21.23;;;4.80;89.70;;;;;;4986774;28;20130;-56
2021/01/03 11:36:36;;;;;;;38.05;19.45;;;4.90;89.20;;;;;;4973329;28;20108;-50
2021/01/03 11:39:05;;;;;;;41.50;18.88;;;5.00;87.50;;;;;;4971466;28;20099;-52
2021/01/03 11:41:31;;;;;;;38.70;18.30;;;4.90;88.40;;;;;;4971586;28;20088;-52
2021/01/03 11:43:57;;;;;;;32.75;15.50;;;4.90;88.40;;;;;;4974022;28;20141;-52
2021/01/03 11:46:23;;;;;;;39.05;19.83;;;5.00;87.10;;;;;;4974327;28;20046;-56
2021/01/03 11:48:48;;;;;;;41.80;20.10;;;4.90;87.90;;;;;;4973318;28;20049;-54
2021/01/03 11:51:14;;;;;;;37.28;18.02;;;4.90;89.10;;;;;;4973460;28;20038;-53
2021/01/03 11:53:40;;;;;;;35.90;19.02;;;5.00;89.10;;;;;;4972830;28;20121;-54
2021/01/03 11:56:06;;;;;;;40.25;20.30;;;5.00;88.90;;;;;;4974132;28;20563;-53
2021/01/03 11:58:33;;;;;;;33.15;16.40;;;4.90;89.20;;;;;;4972393;28;20391;-53
2021/01/03 12:00:59;;;;;;;34.30;18.27;;;5.10;87.60;;;;;;4972102;28;20064;-49
2021/01/03 12:03:26;;;;;;;35.10;18.13;;;5.10;87.30;;;;;;4972815;28;20047;-53
2021/01/03 12:05:51;;;;;;;33.80;16.63;;;5.10;86.80;;;;;;4972699;28;20093;-53
2021/01/03 12:08:17;;;;;;;34.55;16.58;;;5.20;87.00;;;;;;4971019;28;20050;-51
2021/01/03 12:10:43;;;;;;;33.05;16.92;;;5.10;87.00;;;;;;4972503;28;20035;-51
2021/01/03 12:13:09;;;;;;;32.92;17.05;;;5.10;87.00;;;;;;4972420;28;20051;-50
2021/01/03 12:15:35;;;;;;;28.85;14.25;;;5.20;87.10;;;;;;4972441;28;20462;-53
2021/01/03 12:18:01;;;;;;;30.55;14.75;;;5.10;86.70;;;;;;4970651;28;20046;-52
2021/01/03 12:20:28;;;;;;;27.83;15.15;;;5.00;87.00;;;;;;4973270;28;20558;-53
2021/01/03 12:22:55;;;;;;;25.75;13.60;;;5.00;86.50;;;;;;4972349;28;20230;-50
2021/01/03 12:25:21;;;;;;;26.70;13.88;;;5.00;86.30;;;;;;4973355;28;20134;-54
2021/01/03 12:27:47;;;;;;;30.80;14.35;;;4.90;85.50;;;;;;4972583;28;20519;-52
2021/01/03 12:30:15;;;;;;;25.42;13.82;;;4.90;86.20;;;;;;4973266;28;20066;-53
2021/01/03 12:32:41;;;;;;;24.58;11.23;;;5.00;86.10;;;;;;4972451;28;20042;-51
2021/01/03 12:35:08;;;;;;;27.65;15.15;;;5.00;84.10;;;;;;4973265;28;20046;-56
2021/01/03 12:37:37;;;;;;;23.38;12.85;;;5.00;85.40;;;;;;4972524;28;20460;-56
2021/01/03 12:40:06;;;;;;;24.30;12.93;;;5.00;84.90;;;;;;4970280;28;20506;-52
2021/01/03 12:42:36;;;;;;;24.58;13.18;;;5.00;84.10;;;;;;4969859;28;20093;-56
2021/01/03 12:45:06;;;;;;;22.67;11.65;;;4.90;85.40;;;;;;4970828;28;20038;-52
2021/01/03 12:47:32;;;;;;;22.15;12.40;;;5.00;85.40;;;;;;4972688;28;20061;-53
2021/01/03 12:49:58;;;;;;;23.02;11.75;;;5.00;84.50;;;;;;4971166;28;20133;-54
2021/01/03 12:52:24;;;;;;;19.77;10.65;;;4.90;84.70;;;;;;4970906;28;20046;-54
2021/01/03 12:54:49;;;;;;;21.23;10.70;;;4.90;83.80;;;;;;4987454;28;20423;-52
2021/01/03 12:57:15;;;;;;;19.33;11.20;;;4.80;84.20;;;;;;4973159;28;20047;-55
2021/01/03 12:59:41;;;;;;;18.63;9.73;;;4.90;84.00;;;;;;4973032;28;20038;-51
2021/01/03 13:02:07;;;;;;;20.48;11.00;;;4.90;83.60;;;;;;4971137;28;20386;-52